Akhiok, Alaska
Current Conditions -  °F | °C
As of 10:53 PM on Friday 19 Dec 2014 (Local Time) from PADQ Reporting Station
Overcast Overcast  
Wind Chill: 34°   Ceiling: 3800
Heat Index: 43°   Visibility: 9mi
Dew Point: 39°   Wind: 20mph
Humidity: 86%   Direction: 20°NNE
Pressure: 28.84"   Gusts: NA
Location:  57.454°N, 153.546°W
Report Text: PADQ 200753Z 02017KT 9SM SCT032 BKN038 OVC060 06/04 A2884 RMK AO2 SLP766 T00610039
Loading
Personal Weather Stations






























Interactive Weather Map New forecast layout! Learn more

10-Day Weather Forecast

Advertisements
Track Severe Weather on mobile